Time;durP1;ratioP1;P1;durP2;ratioP2;P2;SDS_P1;SDS_P2;PMS_P1;PMS_P2;Temp;Humidity;BMP_temperature;BMP_pressure;BME280_temperature;BME280_humidity;BME280_pressure;Samples;Min_cycle;Max_cycle;Signal;HPM_P1;HPM_P2
2021/01/20 00:01:23;;;;;;;2.00;1.70;;;9.10;81.70;;;;;;5084733;28;20045;-43
2021/01/20 00:03:49;;;;;;;1.42;1.33;;;9.10;81.70;;;;;;5087102;28;20567;-43
2021/01/20 00:06:15;;;;;;;1.58;1.48;;;9.10;81.70;;;;;;5085400;28;20127;-39
2021/01/20 00:08:40;;;;;;;2.13;1.40;;;9.10;81.70;;;;;;5086389;28;20393;-45
2021/01/20 00:11:06;;;;;;;2.47;2.05;;;9.10;81.70;;;;;;5084606;28;20052;-43
2021/01/20 00:13:32;;;;;;;2.58;1.80;;;9.10;81.70;;;;;;5085501;28;20503;-43
2021/01/20 00:15:58;;;;;;;2.25;1.83;;;9.10;81.70;;;;;;5086445;28;20097;-42
2021/01/20 00:18:23;;;;;;;2.65;1.92;;;9.10;81.80;;;;;;5086980;28;20045;-45
2021/01/20 00:20:49;;;;;;;1.52;1.42;;;9.20;81.80;;;;;;5085623;28;20041;-42
2021/01/20 00:23:15;;;;;;;1.95;1.75;;;9.10;81.70;;;;;;5087087;28;20076;-43
2021/01/20 00:25:41;;;;;;;2.13;1.92;;;9.10;81.70;;;;;;5084961;28;20044;-43
2021/01/20 00:28:07;;;;;;;2.10;1.70;;;9.20;81.80;;;;;;5084354;28;20112;-43
2021/01/20 00:30:33;;;;;;;1.90;1.70;;;9.10;81.70;;;;;;5085816;28;20136;-41
2021/01/20 00:32:59;;;;;;;2.55;1.73;;;9.10;81.70;;;;;;5087169;28;20052;-42
2021/01/20 00:35:25;;;;;;;2.50;2.10;;;9.20;81.80;;;;;;5084700;28;20495;-42
2021/01/20 00:37:51;;;;;;;3.13;2.35;;;9.10;81.80;;;;;;5086373;28;20046;-44
2021/01/20 00:40:17;;;;;;;2.00;1.80;;;9.10;81.80;;;;;;5084796;28;20480;-43
2021/01/20 00:42:43;;;;;;;2.15;1.70;;;9.10;81.80;;;;;;5086298;28;20052;-46
2021/01/20 00:45:10;;;;;;;2.42;1.85;;;9.10;81.80;;;;;;5085611;28;20049;-45
2021/01/20 00:47:35;;;;;;;2.65;2.00;;;9.20;81.80;;;;;;5083942;28;20051;-44
2021/01/20 00:50:02;;;;;;;1.80;1.70;;;9.10;81.80;;;;;;5085762;28;20052;-43
2021/01/20 00:52:28;;;;;;;1.95;1.65;;;9.20;81.80;;;;;;5085619;28;20324;-42
2021/01/20 00:54:53;;;;;;;2.40;1.85;;;9.10;81.80;;;;;;5085293;28;20485;-43
2021/01/20 00:57:19;;;;;;;1.92;1.83;;;9.20;81.80;;;;;;5083128;28;20117;-45
2021/01/20 00:59:45;;;;;;;2.45;2.20;;;9.20;81.80;;;;;;5089962;28;20032;-45
2021/01/20 01:02:10;;;;;;;2.70;1.92;;;9.20;81.90;;;;;;5085021;28;20060;-45
2021/01/20 01:04:37;;;;;;;2.22;1.85;;;9.20;81.90;;;;;;5087370;28;20041;-45
2021/01/20 01:07:02;;;;;;;2.45;2.10;;;9.20;81.90;;;;;;5085324;28;20502;-42
2021/01/20 01:09:28;;;;;;;2.70;1.85;;;9.20;81.90;;;;;;5084205;28;20441;-45
2021/01/20 01:11:54;;;;;;;1.92;1.73;;;9.20;81.80;;;;;;5084398;28;20123;-42
2021/01/20 01:14:19;;;;;;;1.98;1.77;;;9.20;81.80;;;;;;5085950;28;20074;-45
2021/01/20 01:16:45;;;;;;;3.85;2.65;;;9.20;81.90;;;;;;5085450;28;20040;-42
2021/01/20 01:19:11;;;;;;;2.83;2.00;;;9.20;81.80;;;;;;5085494;28;20052;-43
2021/01/20 01:21:36;;;;;;;2.95;2.17;;;9.20;81.90;;;;;;5085136;28;20049;-44
2021/01/20 01:24:02;;;;;;;1.95;1.80;;;9.20;81.80;;;;;;5084955;28;20473;-44
2021/01/20 01:26:28;;;;;;;2.42;2.22;;;9.20;81.90;;;;;;5083352;28;20453;-42
2021/01/20 01:28:54;;;;;;;2.30;2.10;;;9.20;81.90;;;;;;5086908;28;20055;-43
2021/01/20 01:31:19;;;;;;;2.90;1.80;;;9.20;81.90;;;;;;5085049;28;20489;-42
2021/01/20 01:33:45;;;;;;;2.65;2.20;;;9.20;81.90;;;;;;5085472;28;20147;-43
2021/01/20 01:36:11;;;;;;;2.20;1.83;;;9.20;81.90;;;;;;5083204;28;20074;-43
2021/01/20 01:38:36;;;;;;;2.53;2.00;;;9.20;81.90;;;;;;5085783;28;20044;-42
2021/01/20 01:41:03;;;;;;;2.90;2.22;;;9.20;81.90;;;;;;5084473;28;20126;-43
2021/01/20 01:43:28;;;;;;;3.65;2.65;;;9.20;81.90;;;;;;5084505;28;20052;-44
2021/01/20 01:45:54;;;;;;;2.33;2.10;;;9.20;81.90;;;;;;5083410;28;20169;-45
2021/01/20 01:48:20;;;;;;;2.88;2.13;;;9.20;81.90;;;;;;5085660;28;20150;-44
2021/01/20 01:50:49;;;;;;;2.10;1.90;;;9.20;81.90;;;;;;5082805;28;20045;-45
2021/01/20 01:53:15;;;;;;;2.90;2.70;;;9.20;81.90;;;;;;5082793;28;20549;-42
2021/01/20 01:55:41;;;;;;;2.35;1.90;;;9.20;81.90;;;;;;5084646;28;20127;-47
2021/01/20 01:58:07;;;;;;;3.83;1.95;;;9.20;81.90;;;;;;5085205;28;20044;-45
2021/01/20 02:00:34;;;;;;;2.75;2.03;;;9.20;81.90;;;;;;5083209;28;20138;-45
2021/01/20 02:03:03;;;;;;;2.42;2.10;;;9.20;81.90;;;;;;5084366;28;20051;-46
2021/01/20 02:05:29;;;;;;;2.95;2.03;;;9.20;81.90;;;;;;5086751;28;20056;-45
2021/01/20 02:07:56;;;;;;;2.13;1.90;;;9.20;81.90;;;;;;5083538;28;20443;-47
2021/01/20 02:10:22;;;;;;;2.88;2.20;;;9.20;81.90;;;;;;5086017;28;20048;-47
2021/01/20 02:12:50;;;;;;;3.38;2.28;;;9.20;81.90;;;;;;5083979;28;20119;-44
2021/01/20 02:15:35;;;;;;;2.50;2.22;;;9.20;81.90;;;;;;5083372;28;20048;-43
2021/01/20 02:18:10;;;;;;;3.20;2.33;;;9.20;81.90;;;;;;5084426;28;20123;-44
2021/01/20 02:20:36;;;;;;;;;;;9.20;81.90;;;;;;5086798;28;20166;-45
2021/01/20 02:23:06;;;;;;;;;;;9.20;81.90;;;;;;5083903;28;20003;-43
2021/01/20 02:25:31;;;;;;;3.25;2.10;;;9.20;82.00;;;;;;5083454;28;19989;-43
2021/01/20 02:28:06;;;;;;;2.97;2.30;;;9.20;81.90;;;;;;5082947;28;20041;-45
2021/01/20 02:30:36;;;;;;;2.53;2.33;;;9.20;81.90;;;;;;5084163;28;20408;-43
2021/01/20 02:33:04;;;;;;;3.42;2.22;;;9.20;81.90;;;;;;5083292;28;20498;-43
2021/01/20 02:35:30;;;;;;;2.20;1.98;;;9.20;82.00;;;;;;5084549;28;20040;-43
2021/01/20 02:37:56;;;;;;;3.08;2.47;;;9.20;82.00;;;;;;5084003;28;20452;-46
2021/01/20 02:40:23;;;;;;;3.58;2.13;;;9.20;82.00;;;;;;5083476;28;20369;-47
2021/01/20 02:42:48;;;;;;;4.18;2.63;;;9.20;82.00;;;;;;5083965;28;20044;-47
2021/01/20 02:45:16;;;;;;;2.53;2.03;;;9.20;82.00;;;;;;5082110;28;20047;-49
2021/01/20 02:47:43;;;;;;;3.50;2.40;;;9.20;82.00;;;;;;5084179;28;20063;-45
2021/01/20 02:50:09;;;;;;;3.10;2.50;;;9.20;82.00;;;;;;5081440;28;20064;-44
2021/01/20 02:52:56;;;;;;;2.70;2.28;;;9.20;82.00;;;;;;5084728;28;20185;-46
2021/01/20 02:55:25;;;;;;;3.00;2.30;;;9.20;82.10;;;;;;5085292;28;20051;-43
2021/01/20 02:57:56;;;;;;;3.85;2.20;;;9.30;82.10;;;;;;5081453;28;20111;-44
2021/01/20 03:00:24;;;;;;;2.35;2.15;;;9.30;82.10;;;;;;5083195;28;20113;-45
2021/01/20 03:02:52;;;;;;;3.45;2.47;;;9.20;82.00;;;;;;5083739;28;20119;-43
2021/01/20 03:05:20;;;;;;;3.00;2.25;;;9.20;82.00;;;;;;5082382;28;20048;-44
2021/01/20 03:07:46;;;;;;;2.92;2.53;;;9.20;82.10;;;;;;5082592;28;20400;-47
2021/01/20 03:10:14;;;;;;;2.22;2.03;;;9.20;82.00;;;;;;5083791;28;20044;-43
2021/01/20 03:12:42;;;;;;;3.42;2.75;;;9.20;82.10;;;;;;5081332;28;20060;-44
2021/01/20 03:15:13;;;;;;;2.38;2.13;;;9.30;82.10;;;;;;5082490;28;20140;-45
2021/01/20 03:17:38;;;;;;;3.15;2.58;;;9.30;82.10;;;;;;5081164;28;20093;-43
2021/01/20 03:20:05;;;;;;;3.92;2.75;;;9.20;82.10;;;;;;5083566;28;20047;-44
2021/01/20 03:22:30;;;;;;;3.20;2.55;;;9.30;82.80;;;;;;5082119;28;20485;-43
2021/01/20 03:24:56;;;;;;;4.53;2.58;;;9.30;82.10;;;;;;5082926;28;20040;-45
2021/01/20 03:27:21;;;;;;;2.50;2.25;;;9.30;82.20;;;;;;5083715;28;20043;-43
2021/01/20 03:29:47;;;;;;;3.13;2.78;;;9.30;82.10;;;;;;5081631;28;20469;-42
2021/01/20 03:32:13;;;;;;;3.58;2.58;;;9.30;82.20;;;;;;5083574;28;20536;-45
2021/01/20 03:34:39;;;;;;;3.28;2.47;;;9.30;82.10;;;;;;5081060;28;20056;-45
2021/01/20 03:37:05;;;;;;;4.15;2.58;;;9.30;82.20;;;;;;5083265;28;20138;-43
2021/01/20 03:39:31;;;;;;;3.15;2.67;;;9.30;82.10;;;;;;5083653;28;20177;-44
2021/01/20 03:41:57;;;;;;;3.17;2.72;;;9.30;82.20;;;;;;5083680;28;20040;-43
2021/01/20 03:44:23;;;;;;;3.47;2.30;;;9.30;82.10;;;;;;5081550;28;20404;-43
2021/01/20 03:46:50;;;;;;;3.17;2.15;;;9.30;82.20;;;;;;5082520;28;20044;-43
2021/01/20 03:49:17;;;;;;;3.65;2.58;;;9.30;82.10;;;;;;5081274;28;20048;-42
2021/01/20 03:51:45;;;;;;;4.05;2.63;;;9.30;82.20;;;;;;5082972;28;20189;-43
2021/01/20 03:54:11;;;;;;;2.63;2.20;;;9.30;82.20;;;;;;5081487;28;20049;-42
2021/01/20 03:56:36;;;;;;;3.40;2.63;;;9.30;82.20;;;;;;5081303;28;20077;-43
2021/01/20 03:59:02;;;;;;;3.33;2.58;;;9.30;82.20;;;;;;5082870;28;20478;-48
2021/01/20 04:01:28;;;;;;;4.53;3.15;;;9.30;82.80;;;;;;5083028;28;20113;-43
2021/01/20 04:03:53;;;;;;;3.22;2.55;;;9.30;82.20;;;;;;5083379;28;20105;-47
2021/01/20 04:06:19;;;;;;;2.80;2.50;;;9.30;82.20;;;;;;5081090;28;20059;-46
2021/01/20 04:08:46;;;;;;;3.63;2.50;;;9.30;82.20;;;;;;5082290;28;20370;-46
2021/01/20 04:11:13;;;;;;;2.85;2.47;;;9.30;82.20;;;;;;5082955;28;20059;-43
2021/01/20 04:13:38;;;;;;;3.13;2.72;;;9.30;82.20;;;;;;5083076;28;20055;-42
2021/01/20 04:16:04;;;;;;;4.20;2.60;;;9.30;82.20;;;;;;5083472;28;20044;-45
2021/01/20 04:18:30;;;;;;;4.55;2.35;;;9.30;82.20;;;;;;5082274;28;20040;-42
2021/01/20 04:20:55;;;;;;;2.78;2.20;;;9.30;82.20;;;;;;5083228;28;20086;-45
2021/01/20 04:23:21;;;;;;;3.15;2.30;;;9.30;82.20;;;;;;5080621;28;20047;-42
2021/01/20 04:25:47;;;;;;;3.53;2.67;;;9.30;82.20;;;;;;5082318;28;20045;-45
2021/01/20 04:28:12;;;;;;;3.03;2.47;;;9.30;82.20;;;;;;5082025;28;20473;-45
2021/01/20 04:30:38;;;;;;;3.63;2.33;;;9.30;82.20;;;;;;5080622;28;20404;-43
2021/01/20 04:33:04;;;;;;;3.28;2.65;;;9.30;82.20;;;;;;5081740;28;20040;-42
2021/01/20 04:35:29;;;;;;;3.80;2.50;;;9.30;82.20;;;;;;5083788;28;20090;-44
2021/01/20 04:37:55;;;;;;;3.30;2.22;;;9.30;82.20;;;;;;5084595;28;20396;-43
2021/01/20 04:40:21;;;;;;;4.65;3.05;;;9.30;82.20;;;;;;5067915;28;20045;-43
2021/01/20 04:42:47;;;;;;;4.18;2.60;;;9.30;82.20;;;;;;5086002;28;20047;-44
2021/01/20 04:45:13;;;;;;;3.63;2.78;;;9.30;82.20;;;;;;5086387;28;20051;-41
2021/01/20 04:47:40;;;;;;;3.42;2.72;;;9.30;82.20;;;;;;5085706;28;20056;-42
2021/01/20 04:50:09;;;;;;;3.70;2.80;;;9.30;82.20;;;;;;5085792;28;20556;-42
2021/01/20 04:52:37;;;;;;;3.08;2.17;;;9.30;82.20;;;;;;5083355;28;20051;-42
2021/01/20 04:55:04;;;;;;;3.60;2.92;;;9.30;82.20;;;;;;5086540;28;20122;-42
2021/01/20 04:57:33;;;;;;;4.13;2.65;;;9.30;82.20;;;;;;5085559;28;20500;-42
2021/01/20 05:00:01;;;;;;;2.90;2.58;;;9.30;82.20;;;;;;5085470;28;20044;-39
2021/01/20 05:02:28;;;;;;;4.05;3.45;;;9.30;82.20;;;;;;5085838;28;20036;-43
2021/01/20 05:04:54;;;;;;;2.95;2.22;;;9.30;82.20;;;;;;5084470;28;20542;-43
2021/01/20 05:07:20;;;;;;;3.00;2.28;;;9.30;82.90;;;;;;5084841;28;20048;-41
2021/01/20 05:09:46;;;;;;;3.10;2.60;;;9.40;82.20;;;;;;5084035;28;20045;-43
2021/01/20 05:12:38;;;;;;;3.13;2.33;;;9.30;82.20;;;;;;5086091;28;20386;-43
2021/01/20 05:15:06;;;;;;;3.35;2.97;;;9.40;82.20;;;;;;5085435;28;20107;-42
2021/01/20 05:17:33;;;;;;;2.92;2.63;;;9.30;82.20;;;;;;5084225;28;20040;-43
2021/01/20 05:19:59;;;;;;;3.28;2.72;;;9.30;82.20;;;;;;5085139;28;20512;-42
2021/01/20 05:22:24;;;;;;;3.20;2.58;;;9.40;82.20;;;;;;5084871;28;20032;-42
2021/01/20 05:24:58;;;;;;;3.50;2.60;;;9.30;82.20;;;;;;5084340;28;20044;-43
2021/01/20 05:27:31;;;;;;;3.97;2.75;;;9.30;82.20;;;;;;5083881;28;20045;-41
2021/01/20 05:30:06;;;;;;;3.35;2.50;;;9.40;82.20;;;;;;5085202;28;20044;-43
2021/01/20 05:32:32;;;;;;;;;;;9.40;82.30;;;;;;5086952;28;20412;-45
2021/01/20 05:35:07;;;;;;;3.30;2.83;;;9.30;82.20;;;;;;5084152;28;19920;-46
2021/01/20 05:37:51;;;;;;;3.70;2.60;;;9.40;82.30;;;;;;5084615;28;20040;-46
2021/01/20 05:40:19;;;;;;;3.40;2.60;;;9.30;82.20;;;;;;5083938;28;20044;-41
2021/01/20 05:42:52;;;;;;;3.35;2.83;;;9.40;82.20;;;;;;5086024;28;20113;-48
2021/01/20 05:45:22;;;;;;;3.20;2.85;;;9.40;82.20;;;;;;5084880;28;20052;-43
2021/01/20 05:48:04;;;;;;;4.50;3.13;;;9.40;82.30;;;;;;5085247;28;20133;-44
2021/01/20 05:50:31;;;;;;;3.25;2.47;;;9.30;82.30;;;;;;5084339;28;20573;-43
2021/01/20 05:53:11;;;;;;;4.75;2.92;;;9.30;82.80;;;;;;5084273;28;20487;-43
2021/01/20 05:55:38;;;;;;;3.08;2.53;;;9.40;82.20;;;;;;5085131;28;20483;-45
2021/01/20 05:58:07;;;;;;;2.92;2.50;;;9.40;82.30;;;;;;5084476;28;20047;-44
2021/01/20 06:00:33;;;;;;;2.60;2.40;;;9.40;82.30;;;;;;5084385;28;20060;-46
2021/01/20 06:02:59;;;;;;;4.00;2.70;;;9.40;82.30;;;;;;5081839;28;20039;-45
2021/01/20 06:05:26;;;;;;;3.22;2.55;;;9.30;82.20;;;;;;5084353;28;20114;-47
2021/01/20 06:07:53;;;;;;;4.15;2.50;;;9.40;82.30;;;;;;5083660;28;20044;-44
2021/01/20 06:10:21;;;;;;;3.00;2.70;;;9.40;82.30;;;;;;5084151;28;20084;-46
2021/01/20 06:12:51;;;;;;;3.45;2.40;;;9.40;82.30;;;;;;5084611;28;20052;-43
2021/01/20 06:15:17;;;;;;;3.17;2.78;;;9.40;82.30;;;;;;5084353;28;20051;-45
2021/01/20 06:17:45;;;;;;;4.53;2.45;;;9.40;82.30;;;;;;5084385;28;20043;-42
2021/01/20 06:20:12;;;;;;;3.47;2.55;;;9.40;82.30;;;;;;5084241;28;20047;-49
2021/01/20 06:22:47;;;;;;;2.90;2.60;;;9.40;82.30;;;;;;5082369;28;20439;-45
2021/01/20 06:25:24;;;;;;;4.80;2.90;;;9.40;82.20;;;;;;5082583;28;20048;-45
2021/01/20 06:28:07;;;;;;;3.50;2.72;;;9.40;82.30;;;;;;5083446;28;20047;-45
2021/01/20 06:30:38;;;;;;;2.95;2.28;;;9.40;82.20;;;;;;5084049;28;20445;-42
2021/01/20 06:33:07;;;;;;;2.85;2.40;;;9.40;82.30;;;;;;5084251;28;20450;-42
2021/01/20 06:35:42;;;;;;;3.38;3.00;;;9.40;82.30;;;;;;5083938;28;20044;-43
2021/01/20 06:38:26;;;;;;;;;;;9.40;82.30;;;;;;5082560;28;20411;-42
2021/01/20 06:40:52;;;;;;;3.80;2.72;;;9.40;82.30;;;;;;5067981;28;19920;-44
2021/01/20 06:43:51;;;;;;;4.05;2.90;;;9.40;82.30;;;;;;5082779;28;20048;-44
2021/01/20 06:46:27;;;;;;;4.43;3.00;;;9.40;82.30;;;;;;5083907;28;20079;-43
2021/01/20 06:48:56;;;;;;;3.72;2.97;;;9.40;82.30;;;;;;5083046;28;20073;-42
2021/01/20 06:51:26;;;;;;;2.80;2.50;;;9.40;82.30;;;;;;5082112;28;20053;-43
2021/01/20 06:54:13;;;;;;;3.75;2.90;;;9.40;82.30;;;;;;5083334;28;20041;-41
2021/01/20 06:56:46;;;;;;;4.65;3.15;;;9.40;82.30;;;;;;5083877;28;20048;-41
2021/01/20 06:59:15;;;;;;;2.92;2.60;;;9.40;82.30;;;;;;5081827;28;20055;-44
2021/01/20 07:01:41;;;;;;;3.53;2.83;;;9.40;82.30;;;;;;5083449;28;20059;-45
2021/01/20 07:04:07;;;;;;;3.47;2.45;;;9.40;82.30;;;;;;5084232;28;20054;-43
2021/01/20 07:06:35;;;;;;;2.80;2.33;;;9.40;82.30;;;;;;5082594;28;20044;-44
2021/01/20 07:09:11;;;;;;;3.65;2.70;;;9.40;82.30;;;;;;5081753;28;20048;-48
2021/01/20 07:11:56;;;;;;;3.05;2.50;;;9.40;82.30;;;;;;5081892;28;20044;-48
2021/01/20 07:14:28;;;;;;;4.28;2.75;;;9.40;82.30;;;;;;5084890;28;20044;-45
2021/01/20 07:16:58;;;;;;;4.00;2.92;;;9.40;82.30;;;;;;5081939;28;20093;-43
2021/01/20 07:19:26;;;;;;;4.90;3.05;;;9.40;82.30;;;;;;5082706;28;20048;-40
2021/01/20 07:21:52;;;;;;;3.13;2.80;;;9.40;82.30;;;;;;5083343;28;20056;-46
2021/01/20 07:24:19;;;;;;;4.00;2.53;;;9.40;82.30;;;;;;5082241;28;20048;-43
2021/01/20 07:26:46;;;;;;;2.60;2.40;;;9.40;82.30;;;;;;5083048;28;20040;-43
2021/01/20 07:29:18;;;;;;;2.85;2.50;;;9.40;82.30;;;;;;5081597;28;20110;-43
2021/01/20 07:31:48;;;;;;;3.35;2.60;;;9.50;82.40;;;;;;5081325;28;20058;-42
2021/01/20 07:34:15;;;;;;;2.95;2.65;;;9.40;82.30;;;;;;5083941;28;20130;-43
2021/01/20 07:36:41;;;;;;;3.10;2.35;;;9.40;82.30;;;;;;5082258;28;20404;-43
2021/01/20 07:39:21;;;;;;;3.50;2.67;;;9.40;82.30;;;;;;5081710;28;20076;-42
2021/01/20 07:41:54;;;;;;;2.92;2.33;;;9.50;82.30;;;;;;5080649;28;20068;-43
2021/01/20 07:44:20;;;;;;;3.85;2.70;;;9.40;82.30;;;;;;5081736;28;20040;-41
2021/01/20 07:47:16;;;;;;;4.65;2.95;;;9.40;82.30;;;;;;5082052;28;20071;-43
2021/01/20 07:49:54;;;;;;;3.10;2.57;;;9.50;82.30;;;;;;5081680;28;20066;-43
2021/01/20 07:52:20;;;;;;;3.47;3.05;;;9.50;82.30;;;;;;5081720;28;20044;-44
2021/01/20 07:54:50;;;;;;;3.15;2.60;;;9.40;82.30;;;;;;5082594;28;20400;-44
2021/01/20 07:57:20;;;;;;;3.33;2.53;;;9.40;82.20;;;;;;5083150;28;20044;-43
2021/01/20 08:00:05;;;;;;;3.97;3.13;;;9.40;82.30;;;;;;5081065;28;20048;-43
2021/01/20 08:02:31;;;;;;;4.03;2.53;;;9.50;82.30;;;;;;5083058;28;20044;-43
2021/01/20 08:05:00;;;;;;;2.50;2.30;;;9.50;82.30;;;;;;5082290;28;20491;-42
2021/01/20 08:07:26;;;;;;;4.40;2.53;;;9.50;82.30;;;;;;5083794;28;20488;-41
2021/01/20 08:09:52;;;;;;;2.70;2.30;;;9.50;82.30;;;;;;5081916;28;20055;-42
2021/01/20 08:12:25;;;;;;;3.35;2.53;;;9.50;82.30;;;;;;5086574;28;20425;-43
2021/01/20 08:14:51;;;;;;;2.40;2.17;;;9.50;82.30;;;;;;5085237;28;20040;-44
2021/01/20 08:17:19;;;;;;;2.90;2.38;;;9.50;82.30;;;;;;5086264;28;20056;-44
2021/01/20 08:19:46;;;;;;;4.40;2.60;;;9.50;82.30;;;;;;5084352;28;20146;-40
2021/01/20 08:22:14;;;;;;;3.50;2.80;;;9.50;82.30;;;;;;5093546;28;20040;-42
2021/01/20 08:24:51;;;;;;;3.20;2.53;;;9.50;82.20;;;;;;5083769;28;20036;-40
2021/01/20 08:27:25;;;;;;;3.10;2.58;;;9.50;82.30;;;;;;5083630;28;20056;-43
2021/01/20 08:29:52;;;;;;;7.28;5.35;;;9.50;82.20;;;;;;5087929;28;20495;-40
2021/01/20 08:32:19;;;;;;;4.03;3.63;;;9.50;82.90;;;;;;5085296;28;20048;-43
2021/01/20 08:34:46;;;;;;;5.97;3.63;;;9.50;82.30;;;;;;5087419;28;20056;-39
2021/01/20 08:37:32;;;;;;;4.13;3.33;;;9.50;82.40;;;;;;5091156;28;20052;-38
2021/01/20 08:40:00;;;;;;;6.20;4.00;;;9.50;82.40;;;;;;5084121;28;20075;-42
2021/01/20 08:42:32;;;;;;;3.85;3.17;;;9.50;82.40;;;;;;5085229;28;20380;-43
2021/01/20 08:45:12;;;;;;;4.15;3.45;;;9.50;82.40;;;;;;5085575;28;20051;-42
2021/01/20 08:47:50;;;;;;;3.22;2.55;;;9.50;82.30;;;;;;5087633;28;20132;-42
2021/01/20 08:50:17;;;;;;;3.92;3.20;;;9.50;82.30;;;;;;5085418;28;20052;-41
2021/01/20 08:52:48;;;;;;;4.30;2.80;;;9.50;82.40;;;;;;5084853;28;20036;-41
2021/01/20 08:55:34;;;;;;;4.15;3.72;;;9.50;82.30;;;;;;5084858;28;20142;-41
2021/01/20 08:58:19;;;;;;;8.27;4.07;;;9.50;82.30;;;;;;5085117;28;20048;-41
2021/01/20 09:00:47;;;;;;;6.25;4.65;;;9.50;82.30;;;;;;5088067;28;20450;-42
2021/01/20 09:03:25;;;;;;;5.13;4.38;;;9.40;82.30;;;;;;5080681;28;20040;-42
2021/01/20 09:05:52;;;;;;;5.22;4.22;;;9.50;82.40;;;;;;5069951;28;20045;-42
2021/01/20 09:08:19;;;;;;;5.57;4.50;;;9.40;82.30;;;;;;5079756;28;20111;-40
2021/01/20 09:10:46;;;;;;;5.57;4.50;;;9.50;82.50;;;;;;5070048;28;20130;-42
2021/01/20 09:13:14;;;;;;;5.88;4.28;;;9.50;82.50;;;;;;5069978;28;20071;-43
2021/01/20 09:15:40;;;;;;;5.32;4.28;;;9.50;82.50;;;;;;5069262;28;20047;-42
2021/01/20 09:18:06;;;;;;;6.15;3.97;;;9.50;82.50;;;;;;5080011;28;20125;-42
2021/01/20 09:20:36;;;;;;;5.13;3.67;;;9.50;82.50;;;;;;5089075;28;20100;-44
2021/01/20 09:23:03;;;;;;;4.60;3.88;;;9.50;82.50;;;;;;5089854;28;20048;-43
2021/01/20 09:25:29;;;;;;;5.35;3.65;;;9.50;82.50;;;;;;5088513;28;20125;-45
2021/01/20 09:27:55;;;;;;;4.72;3.42;;;9.50;82.50;;;;;;5086287;28;20537;-43
2021/01/20 09:30:21;;;;;;;4.25;3.65;;;9.50;82.50;;;;;;5064933;28;20047;-41
2021/01/20 09:32:47;;;;;;;4.07;3.50;;;9.50;82.40;;;;;;5069532;28;20462;-42
2021/01/20 09:35:14;;;;;;;4.40;3.80;;;9.50;82.50;;;;;;5071046;28;20043;-45
2021/01/20 09:37:42;;;;;;;5.55;3.15;;;9.50;82.40;;;;;;5050645;28;20052;-42
2021/01/20 09:40:09;;;;;;;4.40;3.42;;;9.50;82.40;;;;;;5082980;28;20048;-44
2021/01/20 09:42:36;;;;;;;4.78;3.95;;;9.50;82.40;;;;;;5089385;28;20047;-43
2021/01/20 09:45:04;;;;;;;5.03;3.92;;;9.50;82.40;;;;;;5088591;28;20151;-45
2021/01/20 09:47:30;;;;;;;4.22;3.60;;;9.50;82.40;;;;;;5089644;28;20083;-43
2021/01/20 09:49:56;;;;;;;5.22;3.50;;;9.50;82.40;;;;;;5086031;28;20068;-45
2021/01/20 09:52:25;;;;;;;3.88;3.20;;;9.50;82.40;;;;;;5088741;28;20066;-42
2021/01/20 09:54:54;;;;;;;4.03;3.10;;;9.50;82.40;;;;;;5088631;28;20073;-42
2021/01/20 09:57:21;;;;;;;4.13;3.42;;;9.60;82.40;;;;;;5088666;28;20086;-42
2021/01/20 09:59:47;;;;;;;3.75;3.13;;;9.50;82.40;;;;;;5088393;28;20055;-45
2021/01/20 10:02:13;;;;;;;5.13;3.30;;;9.50;82.40;;;;;;5088804;28;20051;-43
2021/01/20 10:04:40;;;;;;;4.22;3.58;;;9.60;82.40;;;;;;5084953;28;20040;-43
2021/01/20 10:07:06;;;;;;;3.70;3.25;;;9.50;82.40;;;;;;5068417;28;20037;-42
2021/01/20 10:09:37;;;;;;;3.80;2.95;;;9.50;82.40;;;;;;5068258;28;20048;-42
2021/01/20 10:12:07;;;;;;;4.70;3.47;;;9.60;82.40;;;;;;5083244;28;20052;-44
2021/01/20 10:14:33;;;;;;;4.05;3.33;;;9.50;82.30;;;;;;5068406;28;20048;-41
2021/01/20 10:16:59;;;;;;;5.03;3.85;;;9.60;82.40;;;;;;5068371;28;20059;-42
2021/01/20 10:19:25;;;;;;;3.30;3.00;;;9.60;82.30;;;;;;5068282;28;20088;-43
2021/01/20 10:21:51;;;;;;;3.83;3.00;;;9.60;82.30;;;;;;5067904;28;20084;-43
2021/01/20 10:24:16;;;;;;;3.78;3.33;;;9.60;82.30;;;;;;5069905;28;20123;-44
2021/01/20 10:26:42;;;;;;;3.63;2.85;;;9.60;82.40;;;;;;5068611;28;20090;-43
2021/01/20 10:29:08;;;;;;;3.42;2.90;;;9.60;82.30;;;;;;5050021;28;20477;-43
2021/01/20 10:31:36;;;;;;;3.78;3.22;;;9.60;82.30;;;;;;5083293;28;20051;-42
2021/01/20 10:34:03;;;;;;;3.63;3.00;;;9.60;82.30;;;;;;5085994;28;20052;-43
2021/01/20 10:36:30;;;;;;;3.55;2.63;;;9.60;82.30;;;;;;5078375;28;20048;-42
2021/01/20 10:38:56;;;;;;;3.65;2.70;;;9.60;82.30;;;;;;5081314;28;20073;-43
2021/01/20 10:41:23;;;;;;;4.20;2.75;;;9.60;82.20;;;;;;5080708;28;20044;-41
2021/01/20 10:43:50;;;;;;;3.30;2.50;;;9.60;82.20;;;;;;5078847;28;20040;-42
2021/01/20 10:46:16;;;;;;;3.67;2.50;;;9.60;82.20;;;;;;5066295;28;20090;-43
2021/01/20 10:48:43;;;;;;;3.58;2.70;;;9.60;82.20;;;;;;5076465;28;20044;-44
2021/01/20 10:51:12;;;;;;;4.03;2.97;;;9.60;82.20;;;;;;5064644;28;20057;-44
2021/01/20 10:53:39;;;;;;;3.33;2.63;;;9.60;82.20;;;;;;5041158;28;20508;-43
2021/01/20 10:56:08;;;;;;;3.97;2.70;;;9.60;82.20;;;;;;5044756;28;20037;-44
2021/01/20 10:58:35;;;;;;;3.58;2.25;;;9.60;82.20;;;;;;5041537;28;20489;-44
2021/01/20 11:01:03;;;;;;;3.15;2.50;;;9.60;82.20;;;;;;5043053;28;20087;-46
2021/01/20 11:03:29;;;;;;;3.92;2.92;;;9.60;82.20;;;;;;5044395;28;20076;-42
2021/01/20 11:05:55;;;;;;;2.40;2.20;;;9.60;82.20;;;;;;5045288;28;20048;-46
2021/01/20 11:08:21;;;;;;;3.42;2.70;;;9.60;82.20;;;;;;5043574;28;20052;-39
2021/01/20 11:10:47;;;;;;;3.47;2.40;;;9.60;82.20;;;;;;5043169;28;20049;-46
2021/01/20 11:13:13;;;;;;;3.22;2.45;;;9.60;82.20;;;;;;5040626;28;20065;-40
2021/01/20 11:15:47;;;;;;;3.58;2.30;;;9.60;82.20;;;;;;5043444;28;20072;-43
2021/01/20 11:18:16;;;;;;;3.03;2.30;;;9.70;82.20;;;;;;5045772;28;20056;-43
2021/01/20 11:20:42;;;;;;;2.53;2.33;;;9.60;82.20;;;;;;5040278;28;20045;-46
2021/01/20 11:23:10;;;;;;;2.70;2.42;;;9.60;82.20;;;;;;5042268;28;20136;-42
2021/01/20 11:25:37;;;;;;;2.45;2.00;;;9.60;82.80;;;;;;5040290;28;20132;-47
2021/01/20 11:28:04;;;;;;;4.00;2.40;;;9.60;82.20;;;;;;5043840;28;20108;-42
2021/01/20 11:30:29;;;;;;;2.30;2.10;;;9.60;82.10;;;;;;5041104;28;20052;-43
2021/01/20 11:32:55;;;;;;;2.58;2.30;;;9.70;82.20;;;;;;5042238;28;20045;-39
2021/01/20 11:35:21;;;;;;;2.75;2.38;;;9.60;82.10;;;;;;5035002;28;20069;-43
2021/01/20 11:37:47;;;;;;;3.20;2.38;;;9.60;82.10;;;;;;5040956;28;20049;-43
2021/01/20 11:40:13;;;;;;;2.40;2.17;;;9.70;82.20;;;;;;5051808;28;20056;-41
2021/01/20 11:42:39;;;;;;;3.58;2.47;;;9.60;82.10;;;;;;5052041;28;20052;-42
2021/01/20 11:45:05;;;;;;;3.40;2.60;;;9.60;82.10;;;;;;5054136;28;20086;-43
2021/01/20 11:47:31;;;;;;;2.35;2.03;;;9.70;82.10;;;;;;5055718;28;20100;-44
2021/01/20 11:49:57;;;;;;;2.35;1.80;;;9.70;82.10;;;;;;5055884;28;20049;-42
2021/01/20 11:52:22;;;;;;;2.55;2.10;;;9.60;82.10;;;;;;5095331;28;20055;-43
2021/01/20 11:54:48;;;;;;;2.85;2.30;;;9.70;82.10;;;;;;5079232;28;20164;-47
2021/01/20 11:57:14;;;;;;;2.25;2.00;;;9.70;82.10;;;;;;5076141;28;20115;-41
2021/01/20 11:59:40;;;;;;;2.78;2.00;;;9.70;82.10;;;;;;5090223;28;20056;-42
2021/01/20 12:02:08;;;;;;;3.30;2.63;;;9.70;82.10;;;;;;5096361;28;20053;-44
2021/01/20 12:04:34;;;;;;;3.08;2.00;;;9.70;82.10;;;;;;5096597;28;20507;-43
2021/01/20 12:06:59;;;;;;;2.92;2.15;;;9.70;82.10;;;;;;5096775;28;20052;-43
2021/01/20 12:09:25;;;;;;;2.40;2.10;;;9.60;82.10;;;;;;5096162;28;20055;-43
2021/01/20 12:11:51;;;;;;;2.92;2.05;;;9.70;82.10;;;;;;5096351;28;20085;-46
2021/01/20 12:14:17;;;;;;;2.80;2.00;;;9.70;82.10;;;;;;5096560;28;20136;-42
2021/01/20 12:16:43;;;;;;;2.22;1.70;;;9.70;82.10;;;;;;5096462;28;20411;-43
2021/01/20 12:19:09;;;;;;;2.83;1.92;;;9.70;82.00;;;;;;5096301;28;20048;-42
2021/01/20 12:21:35;;;;;;;2.38;1.92;;;9.70;82.10;;;;;;5095832;28;20060;-43
2021/01/20 12:24:00;;;;;;;3.35;2.13;;;9.70;82.00;;;;;;5096541;28;20059;-43
2021/01/20 12:26:27;;;;;;;2.50;1.80;;;9.70;82.00;;;;;;5096305;28;20052;-45
2021/01/20 12:28:52;;;;;;;1.83;1.73;;;9.70;82.10;;;;;;5095880;28;20044;-42
2021/01/20 12:31:18;;;;;;;1.90;1.73;;;9.70;82.00;;;;;;5095865;28;20052;-45
2021/01/20 12:33:44;;;;;;;2.17;1.98;;;9.70;82.00;;;;;;5096010;28;20085;-42
2021/01/20 12:36:10;;;;;;;2.45;1.80;;;9.70;82.00;;;;;;5096209;28;20048;-43
2021/01/20 12:38:35;;;;;;;3.03;1.95;;;9.70;82.00;;;;;;5096014;28;20071;-42
2021/01/20 12:41:01;;;;;;;1.77;1.52;;;9.70;82.60;;;;;;5095566;28;20078;-43
2021/01/20 12:43:27;;;;;;;2.22;1.90;;;9.70;82.00;;;;;;5095567;28;20051;-42
2021/01/20 12:45:53;;;;;;;2.88;2.00;;;9.70;82.00;;;;;;5095964;28;20050;-44
2021/01/20 12:48:19;;;;;;;2.30;1.98;;;9.80;82.70;;;;;;5095838;28;20048;-42
2021/01/20 12:50:46;;;;;;;2.00;1.80;;;9.70;81.90;;;;;;5095440;28;20047;-42
2021/01/20 12:53:13;;;;;;;2.83;2.17;;;9.70;81.90;;;;;;5095234;28;20039;-50
2021/01/20 12:55:39;;;;;;;2.13;1.50;;;9.80;82.00;;;;;;5095171;28;20048;-50
2021/01/20 12:58:24;;;;;;;1.67;1.50;;;9.70;82.00;;;;;;5080579;28;20040;-49
2021/01/20 13:00:50;;;;;;;3.17;1.55;;;9.70;82.00;;;;;;5095604;28;20050;-49
2021/01/20 13:03:16;;;;;;;2.55;1.67;;;9.70;81.90;;;;;;5094802;28;20048;-50